Time;durP1;ratioP1;P1;durP2;ratioP2;P2;SDS_P1;SDS_P2;PMS_P1;PMS_P2;Temp;Humidity;BMP_temperature;BMP_pressure;BME280_temperature;BME280_humidity;BME280_pressure;Samples;Min_cycle;Max_cycle;Signal;HPM_P1;HPM_P2
2021/09/27 00:00:44;;;;;;;88.30;54.50;;;20.30;99.90;;;;;;4955462;29;20066;-63
2021/09/27 00:03:11;;;;;;;93.38;54.30;;;20.30;99.90;;;;;;4954337;28;20042;-63
2021/09/27 00:05:37;;;;;;;85.80;53.03;;;20.30;99.90;;;;;;4955517;29;20038;-63
2021/09/27 00:08:03;;;;;;;94.35;54.83;;;20.40;99.90;;;;;;4937240;29;20031;-63
2021/09/27 00:10:34;;;;;;;93.60;54.25;;;20.30;99.90;;;;;;4954658;28;20091;-63
2021/09/27 00:13:00;;;;;;;102.25;58.17;;;20.30;99.90;;;;;;4954895;28;20028;-63
2021/09/27 00:15:31;;;;;;;93.28;54.15;;;20.30;99.90;;;;;;4955357;29;20094;-63
2021/09/27 00:17:57;;;;;;;88.38;53.35;;;20.30;99.90;;;;;;4954721;28;20031;-63
2021/09/27 00:20:23;;;;;;;86.63;52.58;;;20.30;99.90;;;;;;4956289;29;20045;-63
2021/09/27 00:22:49;;;;;;;85.38;52.78;;;20.30;99.90;;;;;;4953490;28;20086;-63
2021/09/27 00:25:18;;;;;;;91.35;56.33;;;21.00;99.90;;;;;;4955166;28;20023;-63
2021/09/27 00:27:44;;;;;;;97.45;58.17;;;21.10;99.90;;;;;;4954536;28;20449;-63
2021/09/27 00:30:10;;;;;;;98.03;57.15;;;21.10;99.90;;;;;;4955203;29;20070;-63
2021/09/27 00:32:36;;;;;;;90.38;54.60;;;21.10;99.90;;;;;;4954478;28;20799;-63
2021/09/27 00:35:02;;;;;;;95.68;54.13;;;20.90;99.90;;;;;;4955153;29;20031;-63
2021/09/27 00:37:28;;;;;;;88.20;54.50;;;20.90;99.90;;;;;;4954755;28;20024;-63
2021/09/27 00:39:53;;;;;;;89.35;54.80;;;21.20;99.90;;;;;;4955877;29;20149;-63
2021/09/27 00:42:19;;;;;;;86.97;54.60;;;21.20;99.90;;;;;;4954585;29;20035;-63
2021/09/27 00:44:45;;;;;;;80.00;51.30;;;21.00;99.90;;;;;;4954828;28;20034;-63
2021/09/27 00:47:10;;;;;;;84.90;53.45;;;21.00;99.90;;;;;;4954318;28;20031;-63
2021/09/27 00:49:36;;;;;;;84.72;52.75;;;20.90;99.90;;;;;;4968522;28;20452;-63
2021/09/27 00:52:03;;;;;;;80.97;50.92;;;21.10;99.90;;;;;;4971561;28;20041;-63
2021/09/27 00:54:33;;;;;;;80.82;49.55;;;21.10;99.90;;;;;;4973645;28;20054;-63
2021/09/27 00:57:12;;;;;;;72.30;48.60;;;21.20;99.90;;;;;;4974112;28;20047;-63
2021/09/27 00:59:41;;;;;;;71.80;48.20;;;34.00;99.90;;;;;;4972875;28;20485;-63
2021/09/27 01:02:08;;;;;;;80.80;50.45;;;21.30;99.90;;;;;;4973964;28;20039;-63
2021/09/27 01:04:34;;;;;;;75.28;48.58;;;35.10;99.90;;;;;;4973310;28;20040;-63
2021/09/27 01:07:15;;;;;;;75.13;47.95;;;21.40;99.90;;;;;;4974922;28;20034;-63
2021/09/27 01:09:59;;;;;;;75.13;48.78;;;21.10;99.90;;;;;;4971135;28;20030;-63
2021/09/27 01:12:40;;;;;;;72.85;47.72;;;34.70;99.90;;;;;;4973369;28;20156;-63
2021/09/27 01:15:18;;;;;;;67.70;47.45;;;34.60;99.90;;;;;;4973888;28;20042;-63
2021/09/27 01:17:44;;;;;;;66.88;45.00;;;34.40;99.90;;;;;;4973178;28;20038;-63
2021/09/27 01:20:21;;;;;;;79.20;49.10;;;33.80;99.90;;;;;;4973853;28;20027;-63
2021/09/27 01:23:01;;;;;;;77.13;50.20;;;34.40;99.90;;;;;;4973442;28;20116;-63
2021/09/27 01:26:20;;;;;;;68.82;47.20;;;34.40;99.90;;;;;;4974144;28;20023;-63
2021/09/27 01:28:46;;;;;;;74.32;49.03;;;34.40;99.90;;;;;;4876164;29;20037;-63
2021/09/27 01:31:14;;;;;;;71.03;47.63;;;34.10;99.90;;;;;;4965821;28;20038;-63
2021/09/27 01:34:03;;;;;;;77.38;50.10;;;32.10;99.90;;;;;;4972588;28;20022;-63
2021/09/27 01:36:51;;;;;;;78.35;50.13;;;34.40;99.90;;;;;;4968284;28;20035;-63
2021/09/27 01:39:40;;;;;;;79.18;51.10;;;34.40;99.90;;;;;;4973166;28;20030;-63
2021/09/27 01:42:16;;;;;;;75.97;49.40;;;34.40;99.90;;;;;;4973885;28;20472;-63
2021/09/27 01:44:53;;;;;;;73.68;49.13;;;34.30;99.90;;;;;;4972898;28;20027;-63
2021/09/27 01:47:37;;;;;;;72.50;48.92;;;34.20;99.90;;;;;;4973155;28;20038;-63
2021/09/27 01:50:15;;;;;;;74.75;50.22;;;34.40;99.90;;;;;;4975412;28;20055;-63
2021/09/27 01:52:55;;;;;;;72.53;49.42;;;34.20;99.90;;;;;;4976965;28;20375;-63
2021/09/27 01:56:02;;;;;;;70.28;47.53;;;34.30;99.90;;;;;;4977388;28;20051;-63
2021/09/27 01:58:37;;;;;;;74.88;49.70;;;34.30;99.90;;;;;;4965301;28;20078;-63
2021/09/27 02:01:08;;;;;;;80.38;52.28;;;34.30;99.90;;;;;;4977523;28;20033;-63
2021/09/27 02:03:39;;;;;;;79.22;51.83;;;34.20;99.90;;;;;;4975227;28;20040;-63
2021/09/27 02:06:27;;;;;;;76.47;50.85;;;34.30;99.90;;;;;;4976926;28;20460;-63
2021/09/27 02:09:12;;;;;;;80.25;51.20;;;34.30;99.90;;;;;;4976269;28;20034;-63
2021/09/27 02:11:41;;;;;;;78.38;51.63;;;34.30;99.90;;;;;;4976814;28;20027;-63
2021/09/27 02:14:18;;;;;;;79.35;50.10;;;34.40;99.90;;;;;;4975469;28;20101;-63
2021/09/27 02:17:30;;;;;;;77.53;51.22;;;34.40;99.90;;;;;;4975361;28;20044;-63
2021/09/27 02:20:04;;;;;;;77.03;50.78;;;34.30;99.90;;;;;;4935060;29;20432;-63
2021/09/27 02:22:42;;;;;;;82.00;52.60;;;34.40;99.90;;;;;;4972735;28;20396;-63
2021/09/27 02:25:11;;;;;;;84.32;53.65;;;34.20;99.90;;;;;;4955149;28;20486;-63
2021/09/27 02:27:37;;;;;;;88.60;54.45;;;34.40;99.90;;;;;;4957246;28;20478;-63
2021/09/27 02:30:06;;;;;;;87.47;54.35;;;34.40;99.90;;;;;;4974150;28;20041;-63
2021/09/27 02:32:44;;;;;;;87.78;54.42;;;34.40;99.90;;;;;;4959382;28;20560;-63
2021/09/27 02:35:13;;;;;;;84.50;54.17;;;34.40;99.90;;;;;;4973923;28;20121;-63
2021/09/27 02:37:56;;;;;;;84.25;51.33;;;34.50;99.90;;;;;;4976700;28;20437;-63
2021/09/27 02:40:30;;;;;;;87.90;52.40;;;34.50;99.90;;;;;;4976309;28;20031;-63
2021/09/27 02:43:00;;;;;;;87.13;52.78;;;34.60;99.90;;;;;;4975903;28;20035;-63
2021/09/27 02:45:28;;;;;;;83.18;52.88;;;34.50;99.90;;;;;;4958454;28;20027;-63
2021/09/27 02:48:01;;;;;;;86.63;52.90;;;34.50;99.90;;;;;;4974153;28;20030;-62
2021/09/27 02:50:31;;;;;;;86.65;51.97;;;34.50;99.90;;;;;;4976026;28;20057;-63
2021/09/27 02:52:57;;;;;;;83.47;52.55;;;34.50;99.90;;;;;;4976065;28;20366;-63
2021/09/27 02:55:48;;;;;;;86.55;53.42;;;34.50;99.90;;;;;;4975792;28;20543;-63
2021/09/27 02:58:41;;;;;;;84.20;52.72;;;34.50;99.90;;;;;;4960453;28;20496;-63
2021/09/27 03:01:38;;;;;;;85.60;53.38;;;34.50;99.90;;;;;;4975940;28;20027;-63
2021/09/27 03:04:26;;;;;;;82.03;51.53;;;34.50;99.90;;;;;;4971546;28;20129;-63
2021/09/27 03:07:10;;;;;;;82.68;53.33;;;34.50;99.90;;;;;;4975995;28;20033;-63
2021/09/27 03:09:54;;;;;;;83.65;53.60;;;34.50;99.90;;;;;;4973349;28;20031;-63
2021/09/27 03:12:38;;;;;;;81.43;51.42;;;34.50;99.90;;;;;;4975340;28;20046;-63
2021/09/27 03:15:28;;;;;;;79.22;50.78;;;34.50;99.90;;;;;;4973149;28;20070;-63
2021/09/27 03:18:23;;;;;;;80.18;50.00;;;34.50;99.90;;;;;;4975140;28;20464;-63
2021/09/27 03:21:21;;;;;;;82.45;50.80;;;34.50;99.90;;;;;;4973798;28;20034;-63
2021/09/27 03:24:11;;;;;;;80.65;50.28;;;34.50;99.90;;;;;;4974324;28;20027;-63
2021/09/27 03:27:09;;;;;;;75.03;48.60;;;34.50;99.90;;;;;;4975693;28;20121;-63
2021/09/27 03:30:17;;;;;;;79.47;49.63;;;34.50;99.90;;;;;;4974497;28;20098;-63
2021/09/27 03:32:59;;;;;;;82.82;50.50;;;34.50;99.90;;;;;;4975909;28;20133;-63
2021/09/27 03:35:43;;;;;;;85.10;53.38;;;34.50;99.90;;;;;;4974909;28;20046;-63
2021/09/27 03:38:15;;;;;;;82.43;53.38;;;34.60;99.90;;;;;;4975034;28;20034;-63
2021/09/27 03:41:01;;;;;;;82.05;51.47;;;34.60;99.90;;;;;;4957672;28;20387;-63
2021/09/27 03:43:39;;;;;;;79.85;51.10;;;34.60;99.90;;;;;;4973393;28;20508;-63
2021/09/27 03:46:44;;;;;;;81.38;50.90;;;34.60;99.90;;;;;;4974419;28;20050;-63
2021/09/27 03:49:24;;;;;;;82.85;51.47;;;34.60;99.90;;;;;;4962441;28;20483;-63
2021/09/27 03:52:06;;;;;;;85.30;50.90;;;34.70;99.90;;;;;;4975173;28;20023;-63
2021/09/27 03:55:08;;;;;;;74.57;47.40;;;34.70;99.90;;;;;;4974105;28;20023;-63
2021/09/27 03:58:15;;;;;;;84.10;49.38;;;34.70;99.90;;;;;;4947696;28;20507;-63
2021/09/27 04:00:56;;;;;;;78.00;46.97;;;34.70;99.90;;;;;;4964470;28;20043;-63
2021/09/27 04:03:42;;;;;;;77.38;47.90;;;34.70;99.90;;;;;;4956278;28;20054;-63
2021/09/27 04:06:37;;;;;;;72.13;45.03;;;34.80;99.90;;;;;;4974609;28;20073;-63
2021/09/27 04:09:12;;;;;;;81.03;47.78;;;34.60;99.90;;;;;;4973005;28;20082;-63
2021/09/27 04:11:52;;;;;;;76.13;46.38;;;34.70;99.90;;;;;;4973725;28;20429;-63
2021/09/27 04:14:30;;;;;;;74.63;46.22;;;34.70;99.90;;;;;;4972453;28;20062;-63
2021/09/27 04:17:31;;;;;;;74.63;45.90;;;34.70;99.90;;;;;;4974795;28;20054;-63
2021/09/27 04:20:13;;;;;;;71.72;44.70;;;34.70;99.90;;;;;;4973421;28;20374;-64
2021/09/27 04:23:18;;;;;;;74.95;44.08;;;34.60;99.90;;;;;;4974429;28;20031;-63
2021/09/27 04:26:04;;;;;;;72.40;44.33;;;34.60;99.90;;;;;;4934965;28;20050;-63
2021/09/27 04:28:39;;;;;;;64.38;39.88;;;34.70;99.90;;;;;;4973328;28;20034;-63
2021/09/27 04:31:16;;;;;;;62.28;37.80;;;34.70;99.90;;;;;;4974281;28;20388;-63
2021/09/27 04:33:53;;;;;;;65.97;41.00;;;34.60;99.90;;;;;;4973918;28;20031;-63
2021/09/27 04:36:35;;;;;;;59.42;39.55;;;34.60;99.90;;;;;;4957020;28;20026;-63
2021/09/27 04:39:07;;;;;;;63.85;40.00;;;34.70;99.90;;;;;;4972715;28;20022;-63
2021/09/27 04:41:54;;;;;;;61.17;40.47;;;34.60;99.90;;;;;;4973788;28;20439;-63
2021/09/27 04:44:51;;;;;;;60.35;39.42;;;34.70;99.90;;;;;;4972068;28;20054;-63
2021/09/27 04:47:35;;;;;;;58.60;37.80;;;34.60;99.90;;;;;;4989906;28;20062;-63
2021/09/27 04:50:23;;;;;;;54.28;37.65;;;34.50;99.90;;;;;;4980056;28;20051;-63
2021/09/27 04:53:22;;;;;;;61.95;39.42;;;34.60;99.90;;;;;;4973901;28;20037;-63
2021/09/27 04:56:07;;;;;;;61.88;38.92;;;34.60;99.90;;;;;;4973689;28;20074;-63
2021/09/27 04:58:36;;;;;;;62.15;39.95;;;34.60;99.90;;;;;;4972120;28;20031;-63
2021/09/27 05:01:14;;;;;;;61.22;41.33;;;34.60;99.90;;;;;;4956641;28;20495;-63
2021/09/27 05:03:39;;;;;;;67.25;41.60;;;34.50;99.90;;;;;;4972788;28;20369;-64
2021/09/27 05:06:14;;;;;;;68.30;41.53;;;34.50;99.90;;;;;;4973356;28;20029;-63
2021/09/27 05:08:54;;;;;;;;;;;34.50;99.90;;;;;;4973365;28;20492;-63
2021/09/27 05:11:57;;;;;;;72.07;42.20;;;34.50;99.90;;;;;;4973043;28;19906;-64
2021/09/27 05:14:53;;;;;;;71.78;44.17;;;34.60;99.90;;;;;;4971804;28;20069;-63
2021/09/27 05:17:49;;;;;;;69.97;43.70;;;34.60;99.90;;;;;;4972826;28;20393;-63
2021/09/27 05:20:40;;;;;;;71.78;42.65;;;34.60;99.90;;;;;;4973041;28;20035;-63
2021/09/27 05:23:21;;;;;;;65.82;40.83;;;34.60;99.90;;;;;;4972448;28;20039;-63
2021/09/27 05:26:00;;;;;;;66.38;41.10;;;34.60;99.90;;;;;;4976425;28;20027;-63
2021/09/27 05:28:37;;;;;;;65.07;38.42;;;34.60;99.90;;;;;;4960143;28;20440;-62
2021/09/27 05:31:05;;;;;;;59.67;36.63;;;34.60;99.90;;;;;;4976224;28;20521;-62
2021/09/27 05:34:00;;;;;;;55.17;35.95;;;34.60;99.90;;;;;;4977646;28;20045;-62
2021/09/27 05:36:46;;;;;;;69.35;44.15;;;34.60;99.90;;;;;;4977402;28;20480;-63
2021/09/27 05:39:40;;;;;;;76.88;46.30;;;34.60;99.90;;;;;;4975187;28;20472;-63
2021/09/27 05:42:30;;;;;;;79.95;48.08;;;34.60;99.90;;;;;;4977437;28;20113;-62
2021/09/27 05:45:13;;;;;;;85.00;51.00;;;34.50;99.90;;;;;;4976416;28;20034;-63
2021/09/27 05:48:01;;;;;;;87.78;50.67;;;34.50;99.90;;;;;;4977378;28;20047;-62
2021/09/27 05:51:01;;;;;;;76.97;49.60;;;34.50;99.90;;;;;;4976208;28;20515;-63
2021/09/27 05:53:50;;;;;;;83.10;48.95;;;34.50;99.90;;;;;;4975711;28;20073;-63
2021/09/27 05:56:34;;;;;;;76.05;46.88;;;34.30;99.90;;;;;;4977136;28;20496;-63
2021/09/27 05:59:11;;;;;;;76.38;47.88;;;34.30;99.90;;;;;;4975885;28;20033;-63
2021/09/27 06:01:43;;;;;;;73.63;45.53;;;34.20;99.90;;;;;;4976942;28;20026;-63
2021/09/27 06:04:32;;;;;;;72.78;45.35;;;34.10;99.90;;;;;;4974427;28;20388;-63
2021/09/27 06:07:07;;;;;;;71.85;45.38;;;34.20;99.90;;;;;;4976802;28;20431;-63
2021/09/27 06:09:41;;;;;;;;;;;34.20;99.90;;;;;;4973210;28;20093;-63
2021/09/27 06:12:28;;;;;;;67.72;42.15;;;34.20;99.90;;;;;;4976915;28;19906;-63
2021/09/27 06:15:00;;;;;;;71.60;43.53;;;34.20;99.90;;;;;;4975304;28;20182;-63
2021/09/27 06:18:04;;;;;;;64.57;43.55;;;34.20;99.90;;;;;;4976130;28;20038;-63
2021/09/27 06:20:33;;;;;;;73.18;44.95;;;34.20;99.90;;;;;;4975675;28;20027;-63
2021/09/27 06:23:15;;;;;;;74.15;44.47;;;34.20;99.90;;;;;;4972161;28;20074;-63
2021/09/27 06:26:05;;;;;;;83.18;46.80;;;34.40;99.90;;;;;;4974303;28;20058;-63
2021/09/27 06:28:44;;;;;;;85.78;48.97;;;34.30;99.90;;;;;;4974694;28;20546;-63
2021/09/27 06:31:14;;;;;;;87.97;48.58;;;34.30;99.90;;;;;;4975998;28;20069;-63
2021/09/27 06:33:47;;;;;;;86.40;47.88;;;34.20;99.90;;;;;;4958752;28;20043;-63
2021/09/27 06:36:21;;;;;;;92.55;49.47;;;34.00;99.90;;;;;;4974774;28;20034;-63
2021/09/27 06:38:55;;;;;;;90.72;49.03;;;34.00;99.90;;;;;;4976750;28;20030;-63
2021/09/27 06:41:23;;;;;;;83.82;45.70;;;18.90;99.90;;;;;;4959488;28;20042;-63
2021/09/27 06:43:51;;;;;;;89.13;48.28;;;30.90;99.90;;;;;;4976619;28;20340;-63
2021/09/27 06:46:18;;;;;;;79.30;46.15;;;18.80;99.90;;;;;;4974754;28;20109;-63
2021/09/27 06:48:44;;;;;;;79.82;43.97;;;21.00;99.90;;;;;;4975955;28;20210;-64
2021/09/27 06:51:09;;;;;;;89.38;47.85;;;21.20;99.90;;;;;;4975646;28;20113;-63
2021/09/27 06:53:35;;;;;;;91.35;47.47;;;21.10;99.90;;;;;;4975750;28;20511;-63
2021/09/27 06:56:02;;;;;;;87.80;47.20;;;20.90;99.90;;;;;;4974402;28;20030;-63
2021/09/27 06:58:27;;;;;;;80.50;44.92;;;21.00;99.90;;;;;;4975027;28;20022;-64
2021/09/27 07:00:55;;;;;;;74.47;41.85;;;33.00;99.90;;;;;;4974213;28;20035;-63
2021/09/27 07:03:20;;;;;;;81.22;44.03;;;33.70;99.90;;;;;;4975679;28;20043;-64
2021/09/27 07:05:46;;;;;;;70.22;38.80;;;34.10;99.90;;;;;;4973208;28;20365;-63
2021/09/27 07:08:12;;;;;;;69.88;39.08;;;31.70;99.90;;;;;;4975538;28;20027;-64
2021/09/27 07:10:38;;;;;;;67.90;37.38;;;32.10;99.90;;;;;;4974146;28;20077;-64
2021/09/27 07:13:04;;;;;;;68.22;38.45;;;31.80;99.90;;;;;;4974222;28;20035;-64
2021/09/27 07:15:29;;;;;;;67.13;38.63;;;23.50;99.90;;;;;;4974127;28;20039;-64
2021/09/27 07:17:55;;;;;;;63.67;34.15;;;31.60;99.90;;;;;;4972838;28;20038;-64
2021/09/27 07:20:23;;;;;;;60.50;35.40;;;30.30;99.90;;;;;;4973750;28;20035;-63
2021/09/27 07:22:48;;;;;;;56.70;34.28;;;32.10;99.90;;;;;;4972327;28;20852;-68
2021/09/27 07:25:16;;;;;;;58.22;35.08;;;32.70;99.90;;;;;;4972801;28;20043;-70
2021/09/27 07:27:42;;;;;;;57.08;35.17;;;33.10;99.90;;;;;;4973638;28;20027;-75
2021/09/27 07:30:11;;;;;;;57.10;33.95;;;33.30;99.90;;;;;;4972447;28;20054;-65
2021/09/27 07:32:37;;;;;;;51.28;32.40;;;20.30;99.90;;;;;;4974663;28;20027;-63
2021/09/27 07:35:04;;;;;;;54.58;33.38;;;32.10;99.90;;;;;;4972779;28;20031;-69
2021/09/27 07:37:30;;;;;;;58.63;35.58;;;32.80;99.90;;;;;;4974877;28;20524;-63
2021/09/27 07:39:56;;;;;;;55.10;35.05;;;31.90;99.90;;;;;;4973963;28;20106;-63
2021/09/27 07:42:21;;;;;;;56.47;34.20;;;31.20;99.90;;;;;;4975095;28;20445;-63
2021/09/27 07:44:47;;;;;;;58.97;35.72;;;31.70;99.90;;;;;;4974396;28;20114;-64
2021/09/27 07:47:13;;;;;;;52.53;32.47;;;32.80;99.90;;;;;;4974532;28;20114;-65
2021/09/27 07:49:38;;;;;;;53.22;33.50;;;20.60;99.90;;;;;;4973085;28;20057;-64
2021/09/27 07:52:05;;;;;;;50.00;32.33;;;31.70;99.90;;;;;;4974764;28;20039;-65
2021/09/27 07:54:30;;;;;;;47.38;32.28;;;21.10;99.90;;;;;;4974705;28;20027;-66
2021/09/27 07:56:56;;;;;;;49.47;32.17;;;21.10;99.90;;;;;;4993998;28;20396;-65
2021/09/27 07:59:22;;;;;;;53.35;31.95;;;21.00;99.90;;;;;;4994049;28;20112;-65
2021/09/27 08:01:47;;;;;;;50.10;31.73;;;32.00;99.90;;;;;;4973344;28;20046;-64
2021/09/27 08:04:15;;;;;;;47.45;30.88;;;32.20;99.90;;;;;;4974448;28;20066;-65
2021/09/27 08:06:42;;;;;;;51.63;30.58;;;31.90;99.90;;;;;;4973791;28;20034;-65
2021/09/27 08:09:09;;;;;;;49.70;30.77;;;33.10;99.90;;;;;;4955631;28;20488;-65
2021/09/27 08:11:36;;;;;;;48.58;30.95;;;31.60;99.90;;;;;;4971778;28;20428;-65
2021/09/27 08:14:02;;;;;;;51.17;31.25;;;33.60;99.90;;;;;;4972746;28;20042;-65
2021/09/27 08:16:27;;;;;;;40.70;28.05;;;34.00;99.90;;;;;;4972434;28;20037;-65
2021/09/27 08:18:53;;;;;;;38.50;27.13;;;31.20;99.90;;;;;;4974415;28;20074;-65
2021/09/27 08:21:19;;;;;;;39.22;27.17;;;21.60;99.90;;;;;;4973671;28;20444;-65
2021/09/27 08:23:46;;;;;;;43.95;29.30;;;31.10;99.90;;;;;;4974310;28;20027;-65
2021/09/27 08:26:12;;;;;;;44.72;28.92;;;21.70;99.90;;;;;;4972117;28;20030;-64
2021/09/27 08:28:40;;;;;;;39.13;27.73;;;24.10;99.90;;;;;;4974079;28;20042;-64
2021/09/27 08:31:14;;;;;;;45.50;30.25;;;23.80;99.90;;;;;;4973080;28;20030;-64
2021/09/27 08:33:40;;;;;;;48.55;29.73;;;21.80;99.90;;;;;;4956831;28;20027;-64
2021/09/27 08:36:09;;;;;;;40.75;28.05;;;21.70;99.90;;;;;;4973345;28;20461;-64
2021/09/27 08:38:38;;;;;;;39.75;27.33;;;21.70;99.90;;;;;;4973807;28;20046;-63
2021/09/27 08:41:17;;;;;;;38.45;27.70;;;21.70;99.90;;;;;;4955771;28;20035;-63
2021/09/27 08:44:00;;;;;;;39.42;28.38;;;21.80;99.90;;;;;;4956595;28;20500;-63
2021/09/27 08:46:54;;;;;;;39.83;27.15;;;22.10;99.90;;;;;;4971415;28;20106;-64
2021/09/27 08:49:41;;;;;;;42.78;29.17;;;34.80;99.90;;;;;;4973565;28;20175;-64
2021/09/27 08:52:10;;;;;;;40.30;28.85;;;26.60;99.90;;;;;;4950354;28;20031;-64
2021/09/27 08:54:37;;;;;;;42.35;30.77;;;25.40;99.90;;;;;;4953108;29;20023;-64
2021/09/27 08:57:09;;;;;;;39.58;29.08;;;26.30;99.90;;;;;;4971565;28;20106;-64
2021/09/27 08:59:54;;;;;;;47.85;32.05;;;26.50;99.90;;;;;;4973023;28;20047;-64
2021/09/27 09:02:48;;;;;;;41.30;29.80;;;26.30;99.90;;;;;;4966431;28;20125;-64
2021/09/27 09:05:34;;;;;;;41.95;29.45;;;26.70;99.90;;;;;;4955170;28;20071;-64
2021/09/27 09:08:24;;;;;;;38.90;28.45;;;26.60;99.90;;;;;;4973785;28;20101;-64
2021/09/27 09:11:01;;;;;;;45.13;28.27;;;26.60;99.90;;;;;;4973075;28;20492;-64
2021/09/27 09:13:40;;;;;;;38.10;26.73;;;26.50;99.90;;;;;;4973834;28;20073;-64
2021/09/27 09:16:08;;;;;;;36.95;26.73;;;26.70;99.90;;;;;;4955107;28;20388;-64
2021/09/27 09:18:46;;;;;;;37.28;27.67;;;26.70;99.90;;;;;;4973453;28;20033;-65
2021/09/27 09:21:19;;;;;;;41.65;29.10;;;26.80;99.90;;;;;;4972554;28;20034;-64
2021/09/27 09:23:53;;;;;;;43.03;28.33;;;26.90;99.90;;;;;;4973598;28;20078;-64
2021/09/27 09:26:27;;;;;;;37.38;27.00;;;27.10;99.90;;;;;;4972623;28;20473;-64
2021/09/27 09:28:55;;;;;;;32.38;24.70;;;26.30;99.90;;;;;;4973644;28;20023;-64
2021/09/27 09:31:24;;;;;;;37.28;26.88;;;26.60;99.90;;;;;;4971148;28;20034;-64
2021/09/27 09:33:56;;;;;;;31.70;24.20;;;26.40;99.90;;;;;;4973733;28;20310;-65
2021/09/27 09:36:26;;;;;;;33.55;25.58;;;25.90;99.90;;;;;;4972481;28;20047;-64
2021/09/27 09:38:52;;;;;;;34.67;25.33;;;26.90;99.90;;;;;;4974310;28;20030;-64
2021/09/27 09:41:19;;;;;;;31.48;23.23;;;27.20;99.90;;;;;;4972705;28;20198;-65
2021/09/27 09:43:49;;;;;;;27.35;20.88;;;27.70;99.90;;;;;;4972946;28;20559;-64
2021/09/27 09:46:30;;;;;;;26.95;21.83;;;29.10;99.90;;;;;;4972547;28;20031;-64
2021/09/27 09:49:10;;;;;;;29.45;23.23;;;33.80;99.90;;;;;;4962963;28;20059;-65
2021/09/27 09:51:40;;;;;;;28.58;22.15;;;33.60;99.90;;;;;;4953453;28;20050;-65
2021/09/27 09:54:38;;;;;;;22.83;19.50;;;34.00;99.90;;;;;;4953501;29;20038;-65
2021/09/27 09:57:19;;;;;;;19.27;16.77;;;34.20;99.90;;;;;;4953596;28;20102;-65
2021/09/27 10:00:06;;;;;;;16.60;14.48;;;34.40;99.90;;;;;;4952722;29;20425;-65
2021/09/27 10:02:36;;;;;;;14.70;13.30;;;34.50;99.90;;;;;;4952181;28;20051;-65
2021/09/27 10:05:16;;;;;;;14.52;13.05;;;33.90;99.90;;;;;;4953655;29;20031;-65
2021/09/27 10:07:49;;;;;;;12.05;10.85;;;34.30;99.90;;;;;;4954039;29;20094;-65
2021/09/27 10:10:41;;;;;;;13.63;12.25;;;34.80;99.90;;;;;;4953108;28;20118;-64
2021/09/27 10:13:26;;;;;;;10.57;9.52;;;34.80;99.90;;;;;;4957251;29;20030;-64
2021/09/27 10:15:52;;;;;;;11.73;10.60;;;22.60;94.80;;;;;;4956721;28;20118;-65
2021/09/27 10:18:32;;;;;;;11.88;10.77;;;23.90;94.70;;;;;;4957322;28;20114;-65
2021/09/27 10:21:23;;;;;;;13.27;11.80;;;23.60;94.30;;;;;;4955431;28;20039;-65
2021/09/27 10:23:52;;;;;;;16.45;13.52;;;23.70;92.80;;;;;;4949272;29;20131;-65
2021/09/27 10:26:30;;;;;;;14.32;12.88;;;23.50;94.40;;;;;;4956649;28;20037;-64
2021/09/27 10:29:02;;;;;;;15.25;13.65;;;24.20;94.40;;;;;;4957203;28;20062;-65
2021/09/27 10:31:28;;;;;;;15.13;13.52;;;24.10;93.90;;;;;;4955208;28;20050;-65
2021/09/27 10:33:58;;;;;;;13.90;12.52;;;23.20;94.00;;;;;;4957033;28;20102;-65
2021/09/27 10:36:47;;;;;;;15.00;13.50;;;23.20;93.50;;;;;;4956667;28;20473;-65
2021/09/27 10:39:17;;;;;;;16.60;14.93;;;23.60;91.70;;;;;;4957364;28;20035;-65
2021/09/27 10:42:03;;;;;;;16.73;14.00;;;23.50;93.40;;;;;;4956084;28;20473;-65
2021/09/27 10:44:34;;;;;;;16.83;15.05;;;23.80;93.70;;;;;;4957276;29;20054;-64
2021/09/27 10:47:16;;;;;;;16.10;14.55;;;24.10;99.90;;;;;;4956154;28;20038;-64
2021/09/27 10:49:47;;;;;;;17.63;15.57;;;24.10;96.10;;;;;;4972683;28;20050;-64
2021/09/27 10:52:25;;;;;;;17.35;15.65;;;24.20;93.70;;;;;;4975157;28;20035;-65
2021/09/27 10:55:17;;;;;;;17.67;15.77;;;24.20;93.50;;;;;;4973173;28;20041;-65
2021/09/27 10:57:58;;;;;;;19.13;15.77;;;24.10;93.60;;;;;;4974746;28;20035;-65
2021/09/27 11:00:26;;;;;;;18.63;16.67;;;24.00;93.00;;;;;;4975543;28;20162;-64
2021/09/27 11:03:15;;;;;;;18.88;17.00;;;24.10;92.50;;;;;;4958084;28;20043;-64
2021/09/27 11:06:00;;;;;;;16.50;14.90;;;23.80;93.50;;;;;;4974748;28;20019;-65
2021/09/27 11:08:46;;;;;;;18.08;16.17;;;23.70;93.90;;;;;;4958266;28;20030;-65
2021/09/27 11:11:37;;;;;;;17.02;15.32;;;23.60;93.40;;;;;;4975413;28;20023;-64
2021/09/27 11:14:18;;;;;;;17.50;15.70;;;23.40;92.60;;;;;;4975666;28;20603;-64
2021/09/27 11:16:46;;;;;;;16.25;14.55;;;23.30;93.40;;;;;;4974220;28;20031;-64
2021/09/27 11:19:12;;;;;;;15.02;13.52;;;23.50;93.00;;;;;;4975239;28;20065;-64
2021/09/27 11:21:47;;;;;;;17.17;15.50;;;23.50;93.50;;;;;;4973720;28;20073;-64
2021/09/27 11:24:15;;;;;;;16.77;15.05;;;23.40;92.90;;;;;;4975268;28;20473;-65
2021/09/27 11:26:46;;;;;;;16.40;14.80;;;23.70;93.50;;;;;;4975048;28;20058;-64
2021/09/27 11:29:30;;;;;;;17.38;15.63;;;23.90;92.90;;;;;;4975287;28;20388;-64
2021/09/27 11:32:41;;;;;;;16.17;14.60;;;24.10;91.90;;;;;;4974503;28;20127;-64
2021/09/27 11:35:16;;;;;;;17.05;15.27;;;24.40;91.20;;;;;;4970585;28;20041;-65
2021/09/27 11:37:41;;;;;;;14.77;13.15;;;24.80;91.40;;;;;;4973847;28;20034;-65
2021/09/27 11:40:07;;;;;;;15.55;14.05;;;24.70;91.40;;;;;;4974411;28;20480;-65
2021/09/27 11:43:17;;;;;;;15.52;13.90;;;24.70;91.60;;;;;;4974688;28;20046;-65
2021/09/27 11:45:56;;;;;;;15.75;14.13;;;24.60;90.10;;;;;;4971659;28;20037;-65
2021/09/27 11:48:34;;;;;;;17.80;15.77;;;24.90;90.30;;;;;;4973593;28;20042;-65
2021/09/27 11:51:17;;;;;;;17.48;15.77;;;24.80;90.20;;;;;;4973443;28;20097;-65
2021/09/27 11:53:49;;;;;;;16.17;14.55;;;24.80;90.10;;;;;;4974917;28;20022;-65
2021/09/27 11:56:38;;;;;;;17.13;15.45;;;24.80;91.10;;;;;;4974362;28;20397;-65
2021/09/27 11:59:25;;;;;;;19.55;17.27;;;24.90;91.20;;;;;;4969344;28;20034;-65
2021/09/27 12:02:01;;;;;;;17.98;16.08;;;24.70;91.60;;;;;;4974262;28;20078;-65
2021/09/27 12:05:03;;;;;;;20.08;18.17;;;24.50;91.10;;;;;;4957393;28;20026;-65
2021/09/27 12:07:57;;;;;;;19.75;17.30;;;25.10;91.40;;;;;;4974672;28;20031;-65
2021/09/27 12:11:05;;;;;;;18.00;16.05;;;25.20;89.70;;;;;;4971015;28;20039;-65
2021/09/27 12:13:40;;;;;;;17.63;15.93;;;;;;;;;;4974723;28;20030;-65
2021/09/27 12:16:13;;;;;;;16.65;15.07;;;25.60;87.40;;;;;;4974238;28;20065;-65
2021/09/27 12:18:40;;;;;;;17.33;15.73;;;;;;;;;;4972265;28;20025;-65
2021/09/27 12:21:31;;;;;;;17.08;15.38;;;25.60;98.50;;;;;;4970735;28;20031;-65
2021/09/27 12:24:23;;;;;;;17.75;16.05;;;25.60;96.90;;;;;;4973597;28;20136;-65
2021/09/27 12:30:14;;;;;;;16.65;15.10;;;25.20;92.50;;;;;;4967061;28;20089;-65
2021/09/27 12:32:56;;;;;;;18.52;16.83;;;27.20;91.90;;;;;;4959027;28;20077;-65
2021/09/27 12:35:31;;;;;;;16.60;15.10;;;26.70;79.90;;;;;;4957880;28;20034;-65
2021/09/27 12:37:58;;;;;;;17.00;15.40;;;25.70;87.70;;;;;;4974077;28;20039;-65
2021/09/27 12:40:29;;;;;;;16.95;15.25;;;26.60;89.50;;;;;;4971477;28;20037;-65
2021/09/27 12:43:03;;;;;;;16.40;14.73;;;30.50;69.00;;;;;;4973759;28;20563;-65
2021/09/27 12:45:29;;;;;;;;;;;;;;;;;;4974030;28;20030;-65
2021/09/27 12:47:57;;;;;;;15.27;13.82;;;30.60;71.50;;;;;;4972379;28;19910;-65
2021/09/27 12:50:26;;;;;;;18.30;16.50;;;29.40;79.80;;;;;;4954112;28;20036;-65
2021/09/27 12:52:59;;;;;;;17.95;16.35;;;29.00;66.30;;;;;;4954598;29;20027;-65
2021/09/27 12:55:53;;;;;;;18.25;16.23;;;31.90;64.60;;;;;;4954263;29;20028;-65
2021/09/27 12:58:25;;;;;;;17.88;16.27;;;33.80;54.90;;;;;;4954060;28;20027;-66
2021/09/27 13:00:51;;;;;;;17.75;16.17;;;34.50;43.10;;;;;;4954328;29;20028;-66
2021/09/27 13:03:26;;;;;;;18.83;17.05;;;32.00;48.20;;;;;;4952711;29;20402;-66
2021/09/27 13:05:54;;;;;;;19.63;17.85;;;30.10;49.80;;;;;;4952662;28;20035;-65
2021/09/27 13:08:26;;;;;;;19.45;17.63;;;28.20;56.20;;;;;;4953837;29;20123;-66
2021/09/27 13:10:55;;;;;;;19.23;17.42;;;28.00;59.80;;;;;;4954175;29;20083;-66
2021/09/27 13:13:32;;;;;;;19.95;17.88;;;26.90;57.00;;;;;;4954527;29;20023;-66
2021/09/27 13:16:16;;;;;;;19.35;17.55;;;26.40;60.20;;;;;;4953143;28;20027;-66
2021/09/27 13:18:45;;;;;;;19.92;18.02;;;26.20;63.20;;;;;;4954438;28;20027;-66
2021/09/27 13:21:46;;;;;;;20.75;18.75;;;25.80;73.60;;;;;;4954342;29;20027;-66